Polaris — JD2797 — position and weather

sailwx.info

Track history (hours):
 
Tides and Currents Weather Stations Pressure Air Temp Water Temp Dewpoint Dewpoint Depression Visibility Wind Speed Wind Dir Waves Ship Positions

Polaris

Last reported at 2016-Aug-29 06:27 UTC. Time now 2016-Aug-29 12:56 UTC.
Position N 35°27' E 139°40'.

Length 30 m; draft 2.6 m.

Type: Pilot. MMSI: 431000764.

Date/timePositionNaut miles runAvg speedWind from/ knotsBaromVisibWave heightAir tempDewpointWater temp
2016-Aug-29 06:27N 35°27' E 139°40'1 0.9
2016-Aug-29 05:34N 35°27' E 139°40'1514.1
2016-Aug-29 04:31N 35°13' E 139°46'1010.4
2016-Aug-29 03:33N 35°23' E 139°42'1313.2
2016-Aug-29 02:33N 35°31' E 139°55'9 8.6
2016-Aug-29 01:33N 35°35' E 140°04'0 0.4
2016-Aug-29 00:33N 35°35' E 140°04'1413.7
2016-Aug-28 23:33N 35°27' E 139°50'9 9.0
2016-Aug-28 22:34N 35°27' E 139°39'1 0.6
2016-Aug-28 21:33N 35°27' E 139°39'6 5.7
2016-Aug-28 20:33N 35°22' E 139°41'9 8.6
2016-Aug-28 19:33N 35°14' E 139°46'1312.7
2016-Aug-28 18:33N 35°27' E 139°43'1 0.7
2016-Aug-28 17:33N 35°27' E 139°42'2 2.2
2016-Aug-28 16:33N 35°27' E 139°40'0 0.0
2016-Aug-27 06:11N 35°27' E 139°40'16 9.6
2016-Aug-27 04:30N 35°11' E 139°47'5 5.6
2016-Aug-27 03:33N 35°16' E 139°44'5 5.0
2016-Aug-27 02:31N 35°19' E 139°39'0 0.0
2016-Aug-27 01:32N 35°19' E 139°39'0 0.0
2016-Aug-27 00:31N 35°19' E 139°39'0 0.0
2016-Aug-26 23:33N 35°19' E 139°39'0 0.0
2016-Aug-26 22:33N 35°19' E 139°39'0 0.0
2016-Aug-26 21:33N 35°19' E 139°39'9 8.6
2016-Aug-26 20:33N 35°12' E 139°46'1312.8
2016-Aug-26 19:33N 35°25' E 139°42'2 1.7
2016-Aug-26 18:33N 35°26' E 139°42'2 1.7
2016-Aug-26 17:33N 35°27' E 139°40'0 0.0
2016-Aug-26 16:33N 35°27' E 139°40'0 0.0
2016-Aug-26 15:33N 35°27' E 139°40'0 0.0
2016-Aug-26 14:33N 35°27' E 139°40'0 0.0
2016-Aug-26 13:33N 35°27' E 139°40'0 0.0
2016-Aug-26 12:33N 35°27' E 139°40'0 0.0
2016-Aug-26 11:33N 35°27' E 139°40'0 0.0
2016-Aug-26 10:33N 35°27' E 139°40'9 8.7
2016-Aug-26 09:33N 35°19' E 139°44'8 8.3
2016-Aug-26 08:32N 35°11' E 139°47'1110.9
2016-Aug-26 07:34N 35°19' E 139°39'0 0.0
2016-Aug-26 06:33N 35°19' E 139°39'0 0.0
2016-Aug-26 04:33N 35°19' E 139°39'0 0.0
2016-Aug-26 03:32N 35°19' E 139°39'7 6.9
2016-Aug-26 02:32N 35°15' E 139°45'7 6.7
2016-Aug-26 01:33N 35°21' E 139°42'3 3.3
2016-Aug-26 00:33N 35°24' E 139°42'3 3.2
2016-Aug-25 23:33N 35°27' E 139°40'2 0.0
2016-Aug-23 21:33N 35°26' E 139°42'1313.5
2016-Aug-23 20:34N 35°13' E 139°46'1211.5
2016-Aug-23 19:33N 35°24' E 139°42'2 2.5
2016-Aug-23 18:33N 35°27' E 139°41'1 1.4
2016-Aug-23 17:33N 35°27' E 139°40'0 0.0
2016-Aug-23 16:33N 35°27' E 139°40'0 0.0
2016-Aug-23 15:33N 35°27' E 139°40'0 0.0
2016-Aug-23 14:33N 35°27' E 139°40'0 0.0
2016-Aug-23 13:33N 35°27' E 139°40'0 0.0
2016-Aug-23 12:33N 35°27' E 139°40'0 0.0
2016-Aug-23 11:33N 35°27' E 139°40'0 0.0
2016-Aug-23 10:33N 35°27' E 139°40'7 7.0
2016-Aug-23 09:33N 35°20' E 139°43'10 9.9
2016-Aug-23 08:33N 35°11' E 139°47'1312.9
2016-Aug-23 07:34N 35°23' E 139°41'4 4.2
2016-Aug-23 06:34N 35°27' E 139°40'0 0.0
2016-Aug-23 05:34N 35°27' E 139°40'0 0.0
2016-Aug-23 04:34N 35°27' E 139°40'0 0.0
2016-Aug-23 03:34N 35°27' E 139°40'0 0.0
2016-Aug-23 02:34N 35°27' E 139°40'0 0.0
2016-Aug-23 01:34N 35°27' E 139°40'0 0.0
2016-Aug-23 00:34N 35°27' E 139°40'0 0.0
2016-Aug-20 22:17N 35°27' E 139°40'2 2.2
2016-Aug-20 21:34N 35°27' E 139°42'1414.3
2016-Aug-20 20:33N 35°13' E 139°46'1111.4
2016-Aug-20 19:34N 35°24' E 139°43'3 2.8
2016-Aug-20 18:33N 35°26' E 139°42'2 2.1
2016-Aug-20 17:33N 35°27' E 139°40'0 0.0
2016-Aug-20 16:33N 35°27' E 139°40'0 0.0
2016-Aug-20 15:33N 35°27' E 139°40'0 0.0
2016-Aug-20 14:33N 35°27' E 139°40'0 0.0
2016-Aug-20 13:33N 35°27' E 139°40'0 0.0
2016-Aug-20 12:33N 35°27' E 139°40'0 0.0
2016-Aug-20 11:33N 35°27' E 139°40'0 0.0
2016-Aug-20 10:33N 35°27' E 139°40'0 0.0
2016-Aug-20 09:33N 35°27' E 139°40'0 0.0
2016-Aug-20 08:33N 35°27' E 139°40'0 0.0
2016-Aug-20 07:34N 35°27' E 139°40'0 0.0
2016-Aug-20 06:33N 35°27' E 139°40'5 4.7
2016-Aug-20 05:33N 35°22' E 139°41'8 8.4
2016-Aug-20 04:33N 35°15' E 139°46'1110.6
2016-Aug-20 03:33N 35°24' E 139°40'1 0.6
2016-Aug-20 02:33N 35°24' E 139°39'3 2.9
2016-Aug-20 01:34N 35°27' E 139°40'  
Track history (hours):
 
Tides and Currents Weather Stations Pressure Air Temp Water Temp Dewpoint Dewpoint Depression Visibility Wind Speed Wind Dir Waves Ship Positions

Polaris

Last reported at 2016-Aug-29 06:27 UTC. Time now 2016-Aug-29 12:56 UTC.
Position N 35°27' E 139°40'.

Length 30 m; draft 2.6 m.

Type: Pilot. MMSI: 431000764.

Date/timePositionNaut miles runAvg speedWind from/ knotsBaromVisibWave heightAir tempDewpointWater temp
2016-Aug-29 06:27N 35°27' E 139°40'1 0.9
2016-Aug-29 05:34N 35°27' E 139°40'1514.1
2016-Aug-29 04:31N 35°13' E 139°46'1010.4
2016-Aug-29 03:33N 35°23' E 139°42'1313.2
2016-Aug-29 02:33N 35°31' E 139°55'9 8.6
2016-Aug-29 01:33N 35°35' E 140°04'0 0.4
2016-Aug-29 00:33N 35°35' E 140°04'1413.7
2016-Aug-28 23:33N 35°27' E 139°50'9 9.0
2016-Aug-28 22:34N 35°27' E 139°39'1 0.6
2016-Aug-28 21:33N 35°27' E 139°39'6 5.7
2016-Aug-28 20:33N 35°22' E 139°41'9 8.6
2016-Aug-28 19:33N 35°14' E 139°46'1312.7
2016-Aug-28 18:33N 35°27' E 139°43'1 0.7
2016-Aug-28 17:33N 35°27' E 139°42'2 2.2
2016-Aug-28 16:33N 35°27' E 139°40'0 0.0
2016-Aug-27 06:11N 35°27' E 139°40'16 9.6
2016-Aug-27 04:30N 35°11' E 139°47'5 5.6
2016-Aug-27 03:33N 35°16' E 139°44'5 5.0
2016-Aug-27 02:31N 35°19' E 139°39'0 0.0
2016-Aug-27 01:32N 35°19' E 139°39'0 0.0
2016-Aug-27 00:31N 35°19' E 139°39'0 0.0
2016-Aug-26 23:33N 35°19' E 139°39'0 0.0
2016-Aug-26 22:33N 35°19' E 139°39'0 0.0
2016-Aug-26 21:33N 35°19' E 139°39'9 8.6
2016-Aug-26 20:33N 35°12' E 139°46'1312.8
2016-Aug-26 19:33N 35°25' E 139°42'2 1.7
2016-Aug-26 18:33N 35°26' E 139°42'2 1.7
2016-Aug-26 17:33N 35°27' E 139°40'0 0.0
2016-Aug-26 16:33N 35°27' E 139°40'0 0.0
2016-Aug-26 15:33N 35°27' E 139°40'0 0.0
2016-Aug-26 14:33N 35°27' E 139°40'0 0.0
2016-Aug-26 13:33N 35°27' E 139°40'0 0.0
2016-Aug-26 12:33N 35°27' E 139°40'0 0.0
2016-Aug-26 11:33N 35°27' E 139°40'0 0.0
2016-Aug-26 10:33N 35°27' E 139°40'9 8.7
2016-Aug-26 09:33N 35°19' E 139°44'8 8.3
2016-Aug-26 08:32N 35°11' E 139°47'1110.9
2016-Aug-26 07:34N 35°19' E 139°39'0 0.0
2016-Aug-26 06:33N 35°19' E 139°39'0 0.0
2016-Aug-26 04:33N 35°19' E 139°39'0 0.0
2016-Aug-26 03:32N 35°19' E 139°39'7 6.9
2016-Aug-26 02:32N 35°15' E 139°45'7 6.7
2016-Aug-26 01:33N 35°21' E 139°42'3 3.3
2016-Aug-26 00:33N 35°24' E 139°42'3 3.2
2016-Aug-25 23:33N 35°27' E 139°40'2 0.0
2016-Aug-23 21:33N 35°26' E 139°42'1313.5
2016-Aug-23 20:34N 35°13' E 139°46'1211.5
2016-Aug-23 19:33N 35°24' E 139°42'2 2.5
2016-Aug-23 18:33N 35°27' E 139°41'1 1.4
2016-Aug-23 17:33N 35°27' E 139°40'0 0.0
2016-Aug-23 16:33N 35°27' E 139°40'0 0.0
2016-Aug-23 15:33N 35°27' E 139°40'0 0.0
2016-Aug-23 14:33N 35°27' E 139°40'0 0.0
2016-Aug-23 13:33N 35°27' E 139°40'0 0.0
2016-Aug-23 12:33N 35°27' E 139°40'0 0.0
2016-Aug-23 11:33N 35°27' E 139°40'0 0.0
2016-Aug-23 10:33N 35°27' E 139°40'7 7.0
2016-Aug-23 09:33N 35°20' E 139°43'10 9.9
2016-Aug-23 08:33N 35°11' E 139°47'1312.9
2016-Aug-23 07:34N 35°23' E 139°41'4 4.2
2016-Aug-23 06:34N 35°27' E 139°40'0 0.0
2016-Aug-23 05:34N 35°27' E 139°40'0 0.0
2016-Aug-23 04:34N 35°27' E 139°40'0 0.0
2016-Aug-23 03:34N 35°27' E 139°40'0 0.0
2016-Aug-23 02:34N 35°27' E 139°40'0 0.0
2016-Aug-23 01:34N 35°27' E 139°40'0 0.0
2016-Aug-23 00:34N 35°27' E 139°40'0 0.0
2016-Aug-20 22:17N 35°27' E 139°40'2 2.2
2016-Aug-20 21:34N 35°27' E 139°42'1414.3
2016-Aug-20 20:33N 35°13' E 139°46'1111.4
2016-Aug-20 19:34N 35°24' E 139°43'3 2.8
2016-Aug-20 18:33N 35°26' E 139°42'2 2.1
2016-Aug-20 17:33N 35°27' E 139°40'0 0.0
2016-Aug-20 16:33N 35°27' E 139°40'0 0.0
2016-Aug-20 15:33N 35°27' E 139°40'0 0.0
2016-Aug-20 14:33N 35°27' E 139°40'0 0.0
2016-Aug-20 13:33N 35°27' E 139°40'0 0.0
2016-Aug-20 12:33N 35°27' E 139°40'0 0.0
2016-Aug-20 11:33N 35°27' E 139°40'0 0.0
2016-Aug-20 10:33N 35°27' E 139°40'0 0.0
2016-Aug-20 09:33N 35°27' E 139°40'0 0.0
2016-Aug-20 08:33N 35°27' E 139°40'0 0.0
2016-Aug-20 07:34N 35°27' E 139°40'0 0.0
2016-Aug-20 06:33N 35°27' E 139°40'5 4.7
2016-Aug-20 05:33N 35°22' E 139°41'8 8.4
2016-Aug-20 04:33N 35°15' E 139°46'1110.6
2016-Aug-20 03:33N 35°24' E 139°40'1 0.6
2016-Aug-20 02:33N 35°24' E 139°39'3 2.9
2016-Aug-20 01:34N 35°27' E 139°40'  

Dump ship's entire track history